Time,TemperatureF,DewpointF,PressureIn,WindDirection,WindDirectionDegrees,WindSpeedMPH,WindSpeedGustMPH,Humidity,HourlyPrecipIn,Conditions,Clouds,dailyrainin,SoftwareType,DateUTC
2013-08-17 00:01:00,58.6,57.2,30.12,North,356,0.0,1.0,95,0.00,,,0.00,WUHU216DAVISVP2,2013-08-17 04:01:00,
2013-08-17 00:06:00,58.1,57.0,30.13,North,356,0.0,1.0,96,0.00,,,0.00,WUHU216DAVISVP2,2013-08-17 04:06:00,
2013-08-17 00:11:00,57.7,56.5,30.13,North,355,0.0,0.0,96,0.00,,,0.00,WUHU216DAVISVP2,2013-08-17 04:11:00,
2013-08-17 00:16:00,57.5,56.3,30.13,North,356,0.0,0.0,96,0.00,,,0.00,WUHU216DAVISVP2,2013-08-17 04:16:00,
2013-08-17 00:21:00,57.3,56.1,30.13,North,356,0.0,0.0,96,0.00,,,0.00,WUHU216DAVISVP2,2013-08-17 04:21:00,
2013-08-17 00:26:00,57.0,55.8,30.14,North,355,0.0,0.0,96,0.00,,,0.00,WUHU216DAVISVP2,2013-08-17 04:26:00,
2013-08-17 00:31:00,57.0,55.8,30.14,North,356,0.0,0.0,96,0.00,,,0.00,WUHU216DAVISVP2,2013-08-17 04:31:00,
2013-08-17 00:36:00,57.2,55.7,30.14,North,356,0.0,0.0,95,0.00,,,0.00,WUHU216DAVISVP2,2013-08-17 04:36:00,
2013-08-17 00:41:00,57.5,56.0,30.14,North,357,0.0,0.0,95,0.00,,,0.00,WUHU216DAVISVP2,2013-08-17 04:41:00,
2013-08-17 00:46:00,57.3,55.8,30.14,North,356,0.0,0.0,95,0.00,,,0.00,WUHU216DAVISVP2,2013-08-17 04:46:00,
2013-08-17 00:51:00,57.4,55.9,30.14,North,356,0.0,0.0,95,0.00,,,0.00,WUHU216DAVISVP2,2013-08-17 04:51:00,
2013-08-17 00:56:00,57.3,55.8,30.14,North,357,0.0,0.0,95,0.00,,,0.00,WUHU216DAVISVP2,2013-08-17 04:56:00,
2013-08-17 01:01:00,57.4,55.9,30.14,North,357,0.0,0.0,95,0.00,,,0.00,WUHU216DAVISVP2,2013-08-17 05:01:00,
2013-08-17 01:06:00,57.5,56.0,30.14,North,357,0.0,0.0,95,0.00,,,0.00,WUHU216DAVISVP2,2013-08-17 05:06:00,
2013-08-17 01:11:00,57.2,56.0,30.14,North,357,0.0,0.0,96,0.00,,,0.00,WUHU216DAVISVP2,2013-08-17 05:11:00,
2013-08-17 01:16:00,56.7,55.5,30.14,North,356,0.0,0.0,96,0.00,,,0.00,WUHU216DAVISVP2,2013-08-17 05:16:00,
2013-08-17 01:21:00,56.5,55.3,30.14,North,355,0.0,0.0,96,0.00,,,0.00,WUHU216DAVISVP2,2013-08-17 05:21:00,
2013-08-17 01:26:00,56.8,55.3,30.14,North,357,0.0,0.0,95,0.00,,,0.00,WUHU216DAVISVP2,2013-08-17 05:26:00,
2013-08-17 01:31:00,56.8,55.3,30.14,North,357,0.0,0.0,95,0.00,,,0.00,WUHU216DAVISVP2,2013-08-17 05:31:00,
2013-08-17 01:36:00,56.9,55.4,30.14,North,357,0.0,0.0,95,0.00,,,0.00,WUHU216DAVISVP2,2013-08-17 05:36:00,
2013-08-17 01:41:00,57.0,55.5,30.14,North,356,0.0,0.0,95,0.00,,,0.00,WUHU216DAVISVP2,2013-08-17 05:41:00,
2013-08-17 01:46:00,57.2,55.7,30.14,North,356,0.0,0.0,95,0.00,,,0.00,WUHU216DAVISVP2,2013-08-17 05:46:00,
2013-08-17 01:51:00,57.2,55.7,30.14,North,357,0.0,0.0,95,0.00,,,0.00,WUHU216DAVISVP2,2013-08-17 05:51:00,
2013-08-17 01:56:00,57.2,55.8,30.14,North,356,0.0,0.0,95,0.00,,,0.00,WUHU216DAVISVP2,2013-08-17 05:56:00,
2013-08-17 02:01:00,57.3,55.8,30.14,North,356,0.0,0.0,95,0.00,,,0.00,WUHU216DAVISVP2,2013-08-17 06:01:00,
2013-08-17 02:06:00,57.5,56.0,30.14,North,357,0.0,0.0,95,0.00,,,0.00,WUHU216DAVISVP2,2013-08-17 06:06:00,
2013-08-17 02:11:00,57.6,56.1,30.14,North,356,0.0,0.0,95,0.00,,,0.00,WUHU216DAVISVP2,2013-08-17 06:11:00,
2013-08-17 02:16:00,57.6,56.1,30.14,North,357,0.0,0.0,95,0.00,,,0.00,WUHU216DAVISVP2,2013-08-17 06:16:00,
2013-08-17 02:21:00,57.6,56.1,30.14,North,357,0.0,0.0,95,0.00,,,0.00,WUHU216DAVISVP2,2013-08-17 06:21:00,
2013-08-17 02:26:00,57.7,56.2,30.14,North,356,0.0,0.0,95,0.00,,,0.00,WUHU216DAVISVP2,2013-08-17 06:26:00,
2013-08-17 02:31:00,57.8,56.3,30.14,North,356,0.0,0.0,95,0.00,,,0.00,WUHU216DAVISVP2,2013-08-17 06:31:00,
2013-08-17 02:36:00,57.9,56.4,30.14,North,355,0.0,0.0,95,0.00,,,0.00,WUHU216DAVISVP2,2013-08-17 06:36:00,
2013-08-17 02:41:00,58.0,56.5,30.14,North,356,0.0,0.0,95,0.00,,,0.00,WUHU216DAVISVP2,2013-08-17 06:41:00,
2013-08-17 02:46:00,58.1,56.6,30.14,North,356,0.0,0.0,95,0.00,,,0.00,WUHU216DAVISVP2,2013-08-17 06:46:00,
2013-08-17 02:51:00,58.2,56.7,30.14,North,356,0.0,0.0,95,0.00,,,0.00,WUHU216DAVISVP2,2013-08-17 06:51:00,
2013-08-17 02:56:00,58.2,56.7,30.14,North,356,0.0,1.0,95,0.00,,,0.00,WUHU216DAVISVP2,2013-08-17 06:56:00,
2013-08-17 03:01:00,58.2,56.7,30.14,North,356,0.0,1.0,95,0.00,,,0.00,WUHU216DAVISVP2,2013-08-17 07:01:00,
2013-08-17 03:06:00,58.3,56.8,30.15,North,356,0.0,1.0,95,0.00,,,0.00,WUHU216DAVISVP2,2013-08-17 07:06:00,
2013-08-17 03:11:00,58.3,56.8,30.15,North,357,0.0,0.0,95,0.00,,,0.00,WUHU216DAVISVP2,2013-08-17 07:11:00,
2013-08-17 03:16:00,58.3,57.1,30.15,North,0,1.0,1.0,96,0.00,,,0.00,WUHU216DAVISVP2,2013-08-17 07:16:00,
2013-08-17 03:21:00,58.3,57.1,30.15,North,359,0.0,1.0,96,0.00,,,0.00,WUHU216DAVISVP2,2013-08-17 07:21:00,
2013-08-17 03:26:00,58.3,57.1,30.15,North,359,1.0,1.0,96,0.00,,,0.00,WUHU216DAVISVP2,2013-08-17 07:26:00,
2013-08-17 03:31:00,58.3,57.1,30.15,North,5,0.0,1.0,96,0.00,,,0.00,WUHU216DAVISVP2,2013-08-17 07:31:00,
2013-08-17 03:36:00,58.3,57.1,30.15,NNE,13,1.0,1.0,96,0.00,,,0.00,WUHU216DAVISVP2,2013-08-17 07:36:00,
2013-08-17 03:41:00,58.2,57.0,30.14,NE,41,1.0,1.0,96,0.00,,,0.00,WUHU216DAVISVP2,2013-08-17 07:41:00,
2013-08-17 03:46:00,58.1,56.9,30.14,NE,41,0.0,1.0,96,0.00,,,0.00,WUHU216DAVISVP2,2013-08-17 07:46:00,
2013-08-17 03:51:00,58.1,56.9,30.15,NE,41,0.0,1.0,96,0.00,,,0.00,WUHU216DAVISVP2,2013-08-17 07:51:00,
2013-08-17 03:56:00,58.0,56.8,30.15,NE,41,0.0,1.0,96,0.00,,,0.00,WUHU216DAVISVP2,2013-08-17 07:56:00,
2013-08-17 04:01:00,58.0,56.8,30.15,NE,41,0.0,0.0,96,0.00,,,0.00,WUHU216DAVISVP2,2013-08-17 08:01:00,
2013-08-17 04:06:00,57.9,56.7,30.15,NE,41,0.0,0.0,96,0.00,,,0.00,WUHU216DAVISVP2,2013-08-17 08:06:00,
2013-08-17 04:11:00,57.9,56.7,30.15,NE,41,0.0,0.0,96,0.00,,,0.00,WUHU216DAVISVP2,2013-08-17 08:11:00,
2013-08-17 04:16:00,57.8,56.6,30.15,NE,41,0.0,0.0,96,0.00,,,0.00,WUHU216DAVISVP2,2013-08-17 08:16:00,
2013-08-17 04:21:00,57.8,56.6,30.15,NE,41,0.0,0.0,96,0.00,,,0.00,WUHU216DAVISVP2,2013-08-17 08:21:00,
2013-08-17 04:26:00,57.7,56.5,30.15,NE,41,0.0,0.0,96,0.00,,,0.00,WUHU216DAVISVP2,2013-08-17 08:26:00,
2013-08-17 04:31:00,57.8,56.6,30.15,NE,41,0.0,0.0,96,0.00,,,0.00,WUHU216DAVISVP2,2013-08-17 08:31:00,
2013-08-17 04:36:00,57.8,56.6,30.15,NE,41,0.0,0.0,96,0.00,,,0.00,WUHU216DAVISVP2,2013-08-17 08:36:00,
2013-08-17 04:41:00,57.7,56.5,30.15,NE,41,0.0,0.0,96,0.00,,,0.00,WUHU216DAVISVP2,2013-08-17 08:41:00,
2013-08-17 04:46:00,57.5,56.3,30.15,NE,41,0.0,0.0,96,0.00,,,0.00,WUHU216DAVISVP2,2013-08-17 08:46:00,
2013-08-17 04:51:00,57.4,56.2,30.15,NE,41,1.0,1.0,96,0.00,,,0.00,WUHU216DAVISVP2,2013-08-17 08:51:00,
2013-08-17 04:56:00,57.3,56.1,30.15,NE,53,0.0,1.0,96,0.00,,,0.00,WUHU216DAVISVP2,2013-08-17 08:56:00,
2013-08-17 05:01:00,57.3,56.1,30.16,NE,52,0.0,1.0,96,0.00,,,0.00,WUHU216DAVISVP2,2013-08-17 09:01:00,
2013-08-17 05:06:00,57.2,56.0,30.16,NE,52,1.0,1.0,96,0.00,,,0.00,WUHU216DAVISVP2,2013-08-17 09:06:00,
2013-08-17 05:11:00,57.1,55.9,30.17,NE,52,0.0,1.0,96,0.00,,,0.00,WUHU216DAVISVP2,2013-08-17 09:11:00,
2013-08-17 05:16:00,57.1,55.9,30.17,NE,52,0.0,1.0,96,0.00,,,0.00,WUHU216DAVISVP2,2013-08-17 09:16:00,
2013-08-17 05:21:00,57.0,55.8,30.16,ENE,77,1.0,1.0,96,0.00,,,0.00,WUHU216DAVISVP2,2013-08-17 09:21:00,
2013-08-17 05:26:00,57.0,55.8,30.16,ENE,78,0.0,1.0,96,0.00,,,0.00,WUHU216DAVISVP2,2013-08-17 09:26:00,
2013-08-17 05:31:00,56.9,55.7,30.17,ENE,78,0.0,1.0,96,0.00,,,0.00,WUHU216DAVISVP2,2013-08-17 09:31:00,
2013-08-17 05:36:00,56.9,55.7,30.17,ENE,78,0.0,1.0,96,0.00,,,0.00,WUHU216DAVISVP2,2013-08-17 09:36:00,
2013-08-17 05:41:00,57.0,55.8,30.17,ENE,77,0.0,1.0,96,0.00,,,0.00,WUHU216DAVISVP2,2013-08-17 09:41:00,
2013-08-17 05:46:00,56.9,55.7,30.17,ENE,78,0.0,1.0,96,0.00,,,0.00,WUHU216DAVISVP2,2013-08-17 09:46:00,
2013-08-17 05:51:00,56.7,55.5,30.17,ENE,78,0.0,1.0,96,0.00,,,0.00,WUHU216DAVISVP2,2013-08-17 09:51:00,
2013-08-17 05:56:00,56.5,55.3,30.17,ENE,78,0.0,1.0,96,0.00,,,0.00,WUHU216DAVISVP2,2013-08-17 09:56:00,
2013-08-17 06:01:00,56.3,55.1,30.17,ENE,77,0.0,1.0,96,0.00,,,0.00,WUHU216DAVISVP2,2013-08-17 10:01:00,
2013-08-17 06:06:00,56.3,55.1,30.17,ENE,77,0.0,1.0,96,0.00,,,0.00,WUHU216DAVISVP2,2013-08-17 10:06:00,
2013-08-17 06:11:00,56.3,55.1,30.17,ENE,78,0.0,1.0,96,0.00,,,0.00,WUHU216DAVISVP2,2013-08-17 10:11:00,
2013-08-17 06:16:00,56.3,55.1,30.17,ENE,77,1.0,1.0,96,0.00,,,0.00,WUHU216DAVISVP2,2013-08-17 10:16:00,
2013-08-17 06:21:00,56.3,55.1,30.17,ENE,77,0.0,1.0,96,0.00,,,0.00,WUHU216DAVISVP2,2013-08-17 10:21:00,
2013-08-17 06:26:00,56.3,55.1,30.17,ENE,77,0.0,0.0,96,0.00,,,0.00,WUHU216DAVISVP2,2013-08-17 10:26:00,
2013-08-17 06:31:00,56.3,55.1,30.18,ENE,78,0.0,0.0,96,0.00,,,0.00,WUHU216DAVISVP2,2013-08-17 10:31:00,
2013-08-17 06:36:00,56.4,55.2,30.18,ENE,77,0.0,1.0,96,0.00,,,0.00,WUHU216DAVISVP2,2013-08-17 10:36:00,
2013-08-17 06:41:00,56.5,55.3,30.18,ENE,78,0.0,1.0,96,0.00,,,0.00,WUHU216DAVISVP2,2013-08-17 10:41:00,
2013-08-17 06:46:00,56.5,55.3,30.19,ENE,78,1.0,1.0,96,0.00,,,0.00,WUHU216DAVISVP2,2013-08-17 10:46:00,
2013-08-17 06:51:00,56.5,55.3,30.19,ENE,78,0.0,1.0,96,0.00,,,0.00,WUHU216DAVISVP2,2013-08-17 10:51:00,
2013-08-17 06:56:00,56.5,55.3,30.19,ENE,78,1.0,1.0,96,0.00,,,0.00,WUHU216DAVISVP2,2013-08-17 10:56:00,
2013-08-17 07:01:00,56.5,55.3,30.19,ENE,77,0.0,1.0,96,0.00,,,0.00,WUHU216DAVISVP2,2013-08-17 11:01:00,
2013-08-17 07:06:00,56.5,55.3,30.19,ENE,77,0.0,1.0,96,0.00,,,0.00,WUHU216DAVISVP2,2013-08-17 11:06:00,
2013-08-17 07:11:00,56.5,55.3,30.19,ENE,77,0.0,1.0,96,0.00,,,0.00,WUHU216DAVISVP2,2013-08-17 11:11:00,
2013-08-17 07:16:00,56.5,55.3,30.19,ENE,77,0.0,1.0,96,0.00,,,0.00,WUHU216DAVISVP2,2013-08-17 11:16:00,
2013-08-17 07:21:00,56.5,55.3,30.19,ENE,78,0.0,1.0,96,0.00,,,0.00,WUHU216DAVISVP2,2013-08-17 11:21:00,
2013-08-17 07:26:00,56.4,55.2,30.19,ENE,78,1.0,1.0,96,0.00,,,0.00,WUHU216DAVISVP2,2013-08-17 11:26:00,
2013-08-17 07:31:00,56.5,55.3,30.19,ENE,77,0.0,1.0,96,0.00,,,0.00,WUHU216DAVISVP2,2013-08-17 11:31:00,
2013-08-17 07:36:00,56.7,55.5,30.19,ENE,78,0.0,1.0,96,0.00,,,0.00,WUHU216DAVISVP2,2013-08-17 11:36:00,
2013-08-17 07:41:00,56.8,55.6,30.19,ENE,77,0.0,1.0,96,0.00,,,0.00,WUHU216DAVISVP2,2013-08-17 11:41:00,
2013-08-17 07:46:00,57.0,55.8,30.20,ENE,77,0.0,0.0,96,0.00,,,0.00,WUHU216DAVISVP2,2013-08-17 11:46:00,
2013-08-17 07:51:00,57.1,55.9,30.20,ENE,77,0.0,0.0,96,0.00,,,0.00,WUHU216DAVISVP2,2013-08-17 11:51:00,
2013-08-17 07:56:00,57.3,56.1,30.20,ENE,77,0.0,1.0,96,0.00,,,0.00,WUHU216DAVISVP2,2013-08-17 11:56:00,
2013-08-17 08:01:00,57.4,56.2,30.20,ENE,77,0.0,1.0,96,0.00,,,0.00,WUHU216DAVISVP2,2013-08-17 12:01:00,
2013-08-17 08:06:00,57.5,56.3,30.20,ENE,78,0.0,1.0,96,0.00,,,0.00,WUHU216DAVISVP2,2013-08-17 12:06:00,
2013-08-17 08:11:00,57.6,56.4,30.20,ENE,77,1.0,1.0,96,0.00,,,0.00,WUHU216DAVISVP2,2013-08-17 12:11:00,
2013-08-17 08:16:00,57.7,56.5,30.20,ENE,77,0.0,1.0,96,0.00,,,0.00,WUHU216DAVISVP2,2013-08-17 12:16:00,
2013-08-17 08:21:00,58.0,56.8,30.19,ENE,77,0.0,1.0,96,0.00,,,0.00,WUHU216DAVISVP2,2013-08-17 12:21:00,
2013-08-17 08:26:00,58.0,56.8,30.19,ENE,78,1.0,1.0,96,0.00,,,0.00,WUHU216DAVISVP2,2013-08-17 12:26:00,
2013-08-17 08:31:00,58.1,56.9,30.19,ENE,77,0.0,1.0,96,0.00,,,0.00,WUHU216DAVISVP2,2013-08-17 12:31:00,
2013-08-17 08:36:00,58.8,57.6,30.20,West,259,1.0,1.0,96,0.00,,,0.00,WUHU216DAVISVP2,2013-08-17 12:36:00,
2013-08-17 08:41:00,59.2,58.0,30.20,ESE,102,1.4,3.0,96,0.00,,,0.00,WUHU216DAVISVP2,2013-08-17 12:41:00,
2013-08-17 08:46:00,59.4,58.2,30.20,East,99,0.0,3.0,96,0.00,,,0.00,WUHU216DAVISVP2,2013-08-17 12:46:00,
2013-08-17 08:51:00,59.9,58.7,30.19,ENE,65,1.0,3.0,96,0.00,,,0.00,WUHU216DAVISVP2,2013-08-17 12:51:00,
2013-08-17 08:56:00,60.1,58.9,30.19,NNW,328,1.0,3.0,96,0.00,,,0.00,WUHU216DAVISVP2,2013-08-17 12:56:00,
2013-08-17 09:01:00,60.3,59.1,30.19,NNW,329,1.0,1.0,96,0.00,,,0.00,WUHU216DAVISVP2,2013-08-17 13:01:00,
2013-08-17 09:06:00,61.0,59.8,30.19,NW,314,0.0,1.0,96,0.00,,,0.00,WUHU216DAVISVP2,2013-08-17 13:06:00,
2013-08-17 09:11:00,61.0,59.8,30.19,WNW,285,1.2,2.0,96,0.00,,,0.00,WUHU216DAVISVP2,2013-08-17 13:11:00,
2013-08-17 09:16:00,61.7,60.5,30.19,WSW,240,1.0,2.0,96,0.00,,,0.00,WUHU216DAVISVP2,2013-08-17 13:16:00,
2013-08-17 09:21:00,62.3,61.1,30.18,WSW,240,1.0,2.0,96,0.00,,,0.00,WUHU216DAVISVP2,2013-08-17 13:21:00,
2013-08-17 09:26:00,62.9,61.7,30.18,WSW,240,1.0,4.0,96,0.00,,,0.00,WUHU216DAVISVP2,2013-08-17 13:26:00,
2013-08-17 09:31:00,63.4,62.2,30.18,North,5,1.0,4.0,96,0.00,,,0.00,WUHU216DAVISVP2,2013-08-17 13:31:00,
2013-08-17 09:36:00,64.3,62.8,30.18,ENE,63,1.0,3.0,95,0.00,,,0.00,WUHU216DAVISVP2,2013-08-17 13:36:00,
2013-08-17 09:41:00,65.4,63.3,30.18,East,86,1.0,3.0,93,0.00,,,0.00,WUHU216DAVISVP2,2013-08-17 13:41:00,
2013-08-17 09:46:00,66.5,63.1,30.18,East,86,0.0,2.0,89,0.00,,,0.00,WUHU216DAVISVP2,2013-08-17 13:46:00,
2013-08-17 09:51:00,67.6,63.0,30.18,East,88,1.2,2.0,85,0.00,,,0.00,WUHU216DAVISVP2,2013-08-17 13:51:00,
2013-08-17 09:56:00,68.3,63.3,30.18,East,83,1.6,3.0,84,0.00,,,0.00,WUHU216DAVISVP2,2013-08-17 13:56:00,
2013-08-17 10:01:00,68.7,62.4,30.18,ESE,109,1.9,3.0,80,0.00,,,0.00,WUHU216DAVISVP2,2013-08-17 14:01:00,
2013-08-17 10:06:00,69.1,62.1,30.18,ESE,113,1.9,3.0,78,0.00,,,0.00,WUHU216DAVISVP2,2013-08-17 14:06:00,
2013-08-17 10:11:00,69.8,62.4,30.18,ENE,61,2.3,5.0,77,0.00,,,0.00,WUHU216DAVISVP2,2013-08-17 14:11:00,
2013-08-17 10:16:00,69.8,62.0,30.18,East,101,1.0,5.0,76,0.00,,,0.00,WUHU216DAVISVP2,2013-08-17 14:16:00,
2013-08-17 10:21:00,70.0,62.9,30.18,ENE,70,1.5,5.0,78,0.00,,,0.00,WUHU216DAVISVP2,2013-08-17 14:21:00,
2013-08-17 10:26:00,69.9,61.8,30.17,East,95,3.0,5.0,75,0.00,,,0.00,WUHU216DAVISVP2,2013-08-17 14:26:00,
2013-08-17 10:31:00,70.1,61.6,30.17,ESE,117,1.2,5.0,74,0.00,,,0.00,WUHU216DAVISVP2,2013-08-17 14:31:00,
2013-08-17 10:36:00,70.5,61.6,30.17,East,80,1.8,4.0,73,0.00,,,0.00,WUHU216DAVISVP2,2013-08-17 14:36:00,
2013-08-17 10:41:00,70.6,60.9,30.17,SE,135,1.2,3.0,71,0.00,,,0.00,WUHU216DAVISVP2,2013-08-17 14:41:00,
2013-08-17 10:46:00,71.4,62.5,30.18,ENE,74,1.0,3.0,73,0.00,,,0.00,WUHU216DAVISVP2,2013-08-17 14:46:00,
2013-08-17 10:51:00,71.7,62.0,30.18,ENE,71,2.1,4.0,71,0.00,,,0.00,WUHU216DAVISVP2,2013-08-17 14:51:00,
2013-08-17 10:56:00,71.4,61.3,30.18,East,80,1.3,4.0,70,0.00,,,0.00,WUHU216DAVISVP2,2013-08-17 14:56:00,
2013-08-17 11:01:00,71.4,60.9,30.18,ENE,58,1.6,4.0,69,0.00,,,0.00,WUHU216DAVISVP2,2013-08-17 15:01:00,
2013-08-17 11:06:00,71.8,61.3,30.18,NNW,334,1.1,4.0,69,0.00,,,0.00,WUHU216DAVISVP2,2013-08-17 15:06:00,
2013-08-17 11:11:00,72.6,62.4,30.18,WSW,257,3.0,3.0,70,0.00,,,0.00,WUHU216DAVISVP2,2013-08-17 15:11:00,
2013-08-17 11:16:00,73.1,62.9,30.18,ENE,66,1.5,3.0,70,0.00,,,0.00,WUHU216DAVISVP2,2013-08-17 15:16:00,
2013-08-17 11:21:00,72.8,61.0,30.18,ENE,75,1.0,4.0,66,0.00,,,0.00,WUHU216DAVISVP2,2013-08-17 15:21:00,
2013-08-17 11:26:00,72.9,61.5,30.18,East,86,1.0,4.0,67,0.00,,,0.00,WUHU216DAVISVP2,2013-08-17 15:26:00,
2013-08-17 11:31:00,73.1,61.7,30.18,NE,46,1.5,4.0,67,0.00,,,0.00,WUHU216DAVISVP2,2013-08-17 15:31:00,
2013-08-17 11:36:00,73.3,62.3,30.18,East,79,2.0,4.0,68,0.00,,,0.00,WUHU216DAVISVP2,2013-08-17 15:36:00,
2013-08-17 11:41:00,73.6,62.6,30.18,SW,221,1.2,4.0,68,0.00,,,0.00,WUHU216DAVISVP2,2013-08-17 15:41:00,
2013-08-17 11:46:00,74.4,61.6,30.18,ENE,70,2.0,4.0,64,0.00,,,0.00,WUHU216DAVISVP2,2013-08-17 15:46:00,
2013-08-17 11:51:00,74.1,60.5,30.17,ENE,60,1.7,4.0,62,0.00,,,0.00,WUHU216DAVISVP2,2013-08-17 15:51:00,
2013-08-17 11:56:00,74.0,60.4,30.17,WSW,248,3.0,4.0,62,0.00,,,0.00,WUHU216DAVISVP2,2013-08-17 15:56:00,
2013-08-17 12:01:00,74.3,60.6,30.17,WNW,286,1.2,4.0,62,0.00,,,0.00,WUHU216DAVISVP2,2013-08-17 16:01:00,
2013-08-17 12:06:00,74.6,62.3,30.17,NW,321,1.1,4.0,65,0.00,,,0.00,WUHU216DAVISVP2,2013-08-17 16:06:00,
2013-08-17 12:11:00,75.2,62.4,30.17,East,86,2.0,3.0,64,0.00,,,0.00,WUHU216DAVISVP2,2013-08-17 16:11:00,
2013-08-17 12:16:00,75.1,60.5,30.16,ESE,112,2.2,5.0,60,0.00,,,0.00,WUHU216DAVISVP2,2013-08-17 16:16:00,
2013-08-17 12:21:00,75.3,61.6,30.16,West,268,1.0,5.0,62,0.00,,,0.00,WUHU216DAVISVP2,2013-08-17 16:21:00,
2013-08-17 12:26:00,75.6,62.8,30.16,ESE,113,4.0,4.0,64,0.00,,,0.00,WUHU216DAVISVP2,2013-08-17 16:26:00,
2013-08-17 12:31:00,75.2,61.5,30.16,NE,51,1.3,4.0,62,0.00,,,0.00,WUHU216DAVISVP2,2013-08-17 16:31:00,
2013-08-17 12:36:00,75.5,62.2,30.16,WNW,302,3.0,4.0,63,0.00,,,0.00,WUHU216DAVISVP2,2013-08-17 16:36:00,
2013-08-17 12:41:00,75.2,62.6,30.16,NNW,330,2.0,4.0,65,0.00,,,0.00,WUHU216DAVISVP2,2013-08-17 16:41:00,
2013-08-17 12:46:00,75.3,61.6,30.16,East,80,2.1,4.0,62,0.00,,,0.00,WUHU216DAVISVP2,2013-08-17 16:46:00,
2013-08-17 12:51:00,75.7,62.0,30.16,West,273,1.3,4.0,62,0.00,,,0.00,WUHU216DAVISVP2,2013-08-17 16:51:00,
2013-08-17 12:56:00,76.1,62.1,30.16,North,11,3.0,3.0,62,0.00,,,0.00,WUHU216DAVISVP2,2013-08-17 16:56:00,
2013-08-17 13:01:00,76.3,61.4,30.16,WNW,299,1.3,3.0,60,0.00,,,0.00,WUHU216DAVISVP2,2013-08-17 17:01:00,
2013-08-17 13:06:00,76.6,63.1,30.16,WNW,290,1.0,3.0,63,0.00,,,0.00,WUHU216DAVISVP2,2013-08-17 17:06:00,
2013-08-17 13:11:00,76.9,62.4,30.16,WNW,289,1.4,3.0,61,0.00,,,0.00,WUHU216DAVISVP2,2013-08-17 17:11:00,
2013-08-17 13:16:00,76.7,63.2,30.16,WNW,293,1.4,3.0,63,0.00,,,0.00,WUHU216DAVISVP2,2013-08-17 17:16:00,
2013-08-17 13:21:00,77.0,63.4,30.16,East,90,1.3,3.0,63,0.00,,,0.00,WUHU216DAVISVP2,2013-08-17 17:21:00,
2013-08-17 13:26:00,77.0,63.4,30.16,WNW,286,1.2,3.0,63,0.00,,,0.00,WUHU216DAVISVP2,2013-08-17 17:26:00,
2013-08-17 13:31:00,76.7,62.0,30.16,WSW,245,1.0,3.0,60,0.00,,,0.00,WUHU216DAVISVP2,2013-08-17 17:31:00,
2013-08-17 13:36:00,77.1,62.1,30.16,East,88,1.0,2.0,60,0.00,,,0.00,WUHU216DAVISVP2,2013-08-17 17:36:00,
2013-08-17 13:41:00,77.2,61.8,30.15,ENE,78,2.1,4.0,59,0.00,,,0.00,WUHU216DAVISVP2,2013-08-17 17:41:00,
2013-08-17 13:46:00,76.7,61.8,30.16,ENE,63,3.0,4.0,60,0.00,,,0.00,WUHU216DAVISVP2,2013-08-17 17:46:00,
2013-08-17 13:51:00,76.8,62.3,30.15,ENE,63,1.5,4.0,61,0.00,,,0.00,WUHU216DAVISVP2,2013-08-17 17:51:00,
2013-08-17 13:56:00,76.7,60.8,30.16,NNW,333,1.0,4.0,58,0.00,,,0.00,WUHU216DAVISVP2,2013-08-17 17:56:00,
2013-08-17 14:01:00,76.8,61.1,30.15,NNE,20,2.6,5.0,58,0.00,,,0.00,WUHU216DAVISVP2,2013-08-17 18:01:00,
2013-08-17 14:06:00,76.9,63.1,30.15,NE,34,1.8,5.0,62,0.00,,,0.00,WUHU216DAVISVP2,2013-08-17 18:06:00,
2013-08-17 14:11:00,77.2,63.4,30.15,North,352,1.0,4.0,62,0.00,,,0.00,WUHU216DAVISVP2,2013-08-17 18:11:00,
2013-08-17 14:16:00,77.5,62.0,30.15,NNW,344,1.2,4.0,59,0.00,,,0.00,WUHU216DAVISVP2,2013-08-17 18:16:00,
2013-08-17 14:21:00,77.5,63.7,30.15,NNE,19,1.0,3.0,62,0.00,,,0.00,WUHU216DAVISVP2,2013-08-17 18:21:00,
2013-08-17 14:26:00,77.7,62.4,30.15,NE,36,1.6,3.0,59,0.00,,,0.00,WUHU216DAVISVP2,2013-08-17 18:26:00,
2013-08-17 14:31:00,77.5,62.7,30.15,NNW,340,1.0,3.0,60,0.00,,,0.00,WUHU216DAVISVP2,2013-08-17 18:31:00,
2013-08-17 14:36:00,78.2,63.4,30.15,East,82,2.0,3.0,60,0.00,,,0.00,WUHU216DAVISVP2,2013-08-17 18:36:00,
2013-08-17 14:41:00,77.8,61.5,30.15,SE,138,1.3,5.0,57,0.00,,,0.00,WUHU216DAVISVP2,2013-08-17 18:41:00,
2013-08-17 14:46:00,77.7,62.0,30.14,ENE,59,1.3,5.0,58,0.00,,,0.00,WUHU216DAVISVP2,2013-08-17 18:46:00,
2013-08-17 14:51:00,77.7,62.0,30.14,ENE,69,1.4,5.0,58,0.00,,,0.00,WUHU216DAVISVP2,2013-08-17 18:51:00,
2013-08-17 14:56:00,77.7,64.3,30.14,East,85,1.1,4.0,63,0.00,,,0.00,WUHU216DAVISVP2,2013-08-17 18:56:00,
2013-08-17 15:01:00,77.7,63.4,30.14,East,82,1.5,3.0,61,0.00,,,0.00,WUHU216DAVISVP2,2013-08-17 19:01:00,
2013-08-17 15:06:00,77.4,62.2,30.14,ENE,70,1.5,3.0,59,0.00,,,0.00,WUHU216DAVISVP2,2013-08-17 19:06:00,
2013-08-17 15:11:00,77.5,61.3,30.14,North,359,1.0,3.0,57,0.00,,,0.00,WUHU216DAVISVP2,2013-08-17 19:11:00,
2013-08-17 15:16:00,77.7,62.4,30.14,ENE,77,2.0,3.0,59,0.00,,,0.00,WUHU216DAVISVP2,2013-08-17 19:16:00,
2013-08-17 15:21:00,77.4,61.7,30.14,East,90,1.0,3.0,58,0.00,,,0.00,WUHU216DAVISVP2,2013-08-17 19:21:00,
2013-08-17 15:26:00,77.3,61.6,30.14,ENE,63,1.1,3.0,58,0.00,,,0.00,WUHU216DAVISVP2,2013-08-17 19:26:00,
2013-08-17 15:31:00,77.5,60.8,30.14,ENE,63,1.0,2.0,56,0.00,,,0.00,WUHU216DAVISVP2,2013-08-17 19:31:00,
2013-08-17 15:36:00,77.5,62.7,30.13,ENE,62,1.1,2.0,60,0.00,,,0.00,WUHU216DAVISVP2,2013-08-17 19:36:00,
2013-08-17 15:41:00,77.2,61.0,30.13,NE,53,1.4,2.0,57,0.00,,,0.00,WUHU216DAVISVP2,2013-08-17 19:41:00,
2013-08-17 15:46:00,77.0,61.3,30.13,ENE,72,1.3,2.0,58,0.00,,,0.00,WUHU216DAVISVP2,2013-08-17 19:46:00,
2013-08-17 15:51:00,76.9,61.7,30.13,ENE,68,1.0,3.0,59,0.00,,,0.00,WUHU216DAVISVP2,2013-08-17 19:51:00,
2013-08-17 15:56:00,76.7,59.5,30.14,ENE,73,1.0,3.0,55,0.00,,,0.00,WUHU216DAVISVP2,2013-08-17 19:56:00,
2013-08-17 16:01:00,76.7,64.7,30.14,East,79,1.0,3.0,66,0.00,,,0.00,WUHU216DAVISVP2,2013-08-17 20:01:00,
2013-08-17 16:06:00,76.6,65.9,30.14,East,79,1.0,3.0,69,0.00,,,0.00,WUHU216DAVISVP2,2013-08-17 20:06:00,
2013-08-17 16:11:00,75.8,65.1,30.13,East,79,1.0,1.0,69,0.00,,,0.00,WUHU216DAVISVP2,2013-08-17 20:11:00,
2013-08-17 16:16:00,75.3,65.4,30.13,East,79,0.0,1.0,71,0.00,,,0.00,WUHU216DAVISVP2,2013-08-17 20:16:00,
2013-08-17 16:21:00,75.4,65.5,30.13,East,79,0.0,1.0,71,0.00,,,0.00,WUHU216DAVISVP2,2013-08-17 20:21:00,
2013-08-17 16:26:00,75.7,66.2,30.13,East,79,0.0,1.0,72,0.00,,,0.00,WUHU216DAVISVP2,2013-08-17 20:26:00,
2013-08-17 16:31:00,76.3,65.6,30.13,East,79,1.0,1.0,69,0.00,,,0.00,WUHU216DAVISVP2,2013-08-17 20:31:00,
2013-08-17 16:36:00,76.2,66.3,30.13,East,79,1.0,1.0,71,0.00,,,0.00,WUHU216DAVISVP2,2013-08-17 20:36:00,
2013-08-17 16:41:00,75.8,64.7,30.14,East,79,1.0,1.0,68,0.00,,,0.00,WUHU216DAVISVP2,2013-08-17 20:41:00,
2013-08-17 16:46:00,75.8,65.5,30.14,ENE,78,1.0,1.0,70,0.00,,,0.00,WUHU216DAVISVP2,2013-08-17 20:46:00,
2013-08-17 16:51:00,76.1,64.1,30.14,ENE,77,1.0,1.0,66,0.00,,,0.00,WUHU216DAVISVP2,2013-08-17 20:51:00,
2013-08-17 16:56:00,76.4,63.1,30.14,ENE,78,1.0,3.0,63,0.00,,,0.00,WUHU216DAVISVP2,2013-08-17 20:56:00,
2013-08-17 17:01:00,76.1,64.1,30.14,East,79,1.0,3.0,66,0.00,,,0.00,WUHU216DAVISVP2,2013-08-17 21:01:00,
2013-08-17 17:06:00,75.9,64.8,30.14,NNE,24,1.3,3.0,68,0.00,,,0.00,WUHU216DAVISVP2,2013-08-17 21:06:00,
2013-08-17 17:11:00,75.8,65.1,30.14,NNE,25,1.1,3.0,69,0.00,,,0.00,WUHU216DAVISVP2,2013-08-17 21:11:00,
2013-08-17 17:16:00,75.7,65.8,30.14,East,98,1.3,2.0,71,0.00,,,0.00,WUHU216DAVISVP2,2013-08-17 21:16:00,
2013-08-17 17:21:00,75.6,65.7,30.14,East,91,1.0,2.0,71,0.00,,,0.00,WUHU216DAVISVP2,2013-08-17 21:21:00,
2013-08-17 17:26:00,75.6,64.1,30.14,NE,50,1.3,2.0,67,0.00,,,0.00,WUHU216DAVISVP2,2013-08-17 21:26:00,
2013-08-17 17:31:00,75.3,66.2,30.14,ENE,63,0.0,2.0,73,0.00,,,0.00,WUHU216DAVISVP2,2013-08-17 21:31:00,
2013-08-17 17:36:00,75.3,64.2,30.14,East,84,1.0,2.0,68,0.00,,,0.00,WUHU216DAVISVP2,2013-08-17 21:36:00,
2013-08-17 17:41:00,75.3,63.8,30.14,ENE,77,1.0,2.0,67,0.00,,,0.00,WUHU216DAVISVP2,2013-08-17 21:41:00,
2013-08-17 17:46:00,75.4,64.7,30.14,ENE,75,0.0,2.0,69,0.00,,,0.00,WUHU216DAVISVP2,2013-08-17 21:46:00,
2013-08-17 17:51:00,75.5,67.2,30.14,ENE,75,1.0,2.0,75,0.00,,,0.00,WUHU216DAVISVP2,2013-08-17 21:51:00,
2013-08-17 17:56:00,75.2,67.6,30.14,ENE,75,0.0,1.0,77,0.00,,,0.00,WUHU216DAVISVP2,2013-08-17 21:56:00,
2013-08-17 18:01:00,74.7,67.1,30.14,ENE,75,1.3,2.0,77,0.00,,,0.00,WUHU216DAVISVP2,2013-08-17 22:01:00,
2013-08-17 18:06:00,74.3,65.6,30.14,East,94,0.0,2.0,74,0.00,,,0.00,WUHU216DAVISVP2,2013-08-17 22:06:00,
2013-08-17 18:11:00,74.3,66.4,30.14,East,94,1.0,2.0,76,0.00,,,0.00,WUHU216DAVISVP2,2013-08-17 22:11:00,
2013-08-17 18:16:00,74.1,66.9,30.14,East,93,0.0,2.0,78,0.00,,,0.00,WUHU216DAVISVP2,2013-08-17 22:16:00,
2013-08-17 18:21:00,73.9,66.4,30.14,East,93,0.0,1.0,77,0.00,,,0.00,WUHU216DAVISVP2,2013-08-17 22:21:00,
2013-08-17 18:26:00,73.6,66.8,30.14,East,94,0.0,1.0,79,0.00,,,0.00,WUHU216DAVISVP2,2013-08-17 22:26:00,
2013-08-17 18:31:00,73.2,67.1,30.14,East,94,0.0,1.0,81,0.00,,,0.00,WUHU216DAVISVP2,2013-08-17 22:31:00,
2013-08-17 18:36:00,72.9,67.5,30.14,East,94,0.0,1.0,83,0.00,,,0.00,WUHU216DAVISVP2,2013-08-17 22:36:00,
2013-08-17 18:41:00,72.6,66.9,30.14,East,93,1.0,1.0,82,0.00,,,0.00,WUHU216DAVISVP2,2013-08-17 22:41:00,
2013-08-17 18:46:00,72.3,66.6,30.14,East,94,1.0,1.0,82,0.00,,,0.00,WUHU216DAVISVP2,2013-08-17 22:46:00,
2013-08-17 18:51:00,72.1,66.7,30.14,East,94,0.0,1.0,83,0.00,,,0.00,WUHU216DAVISVP2,2013-08-17 22:51:00,
2013-08-17 18:56:00,71.8,66.4,30.14,East,94,1.0,1.0,83,0.00,,,0.00,WUHU216DAVISVP2,2013-08-17 22:56:00,
2013-08-17 19:01:00,71.5,66.5,30.14,East,94,0.0,1.0,84,0.00,,,0.00,WUHU216DAVISVP2,2013-08-17 23:01:00,
2013-08-17 19:06:00,71.3,66.2,30.14,East,94,0.0,1.0,84,0.00,,,0.00,WUHU216DAVISVP2,2013-08-17 23:06:00,
2013-08-17 19:11:00,71.2,66.5,30.14,East,93,0.0,1.0,85,0.00,,,0.00,WUHU216DAVISVP2,2013-08-17 23:11:00,
2013-08-17 19:16:00,71.2,66.8,30.14,East,94,0.0,1.0,86,0.00,,,0.00,WUHU216DAVISVP2,2013-08-17 23:16:00,
2013-08-17 19:21:00,70.8,66.4,30.14,East,94,0.0,1.0,86,0.00,,,0.00,WUHU216DAVISVP2,2013-08-17 23:21:00,
2013-08-17 19:26:00,70.5,66.1,30.14,East,94,0.0,1.0,86,0.00,,,0.00,WUHU216DAVISVP2,2013-08-17 23:26:00,
2013-08-17 19:31:00,70.1,66.0,30.14,East,94,0.0,1.0,87,0.00,,,0.00,WUHU216DAVISVP2,2013-08-17 23:31:00,
2013-08-17 19:36:00,70.0,66.3,30.14,East,94,0.0,1.0,88,0.00,,,0.00,WUHU216DAVISVP2,2013-08-17 23:36:00,
2013-08-17 19:41:00,69.7,66.3,30.14,East,94,0.0,1.0,89,0.00,,,0.00,WUHU216DAVISVP2,2013-08-17 23:41:00,
2013-08-17 19:46:00,69.3,65.6,30.14,East,94,0.0,0.0,88,0.00,,,0.00,WUHU216DAVISVP2,2013-08-17 23:46:00,
2013-08-17 19:51:00,69.1,65.7,30.14,East,94,0.0,0.0,89,0.00,,,0.00,WUHU216DAVISVP2,2013-08-17 23:51:00,
2013-08-17 19:56:00,69.0,65.9,30.14,East,94,0.0,0.0,90,0.00,,,0.00,WUHU216DAVISVP2,2013-08-17 23:56:00,
2013-08-17 20:01:00,68.7,65.6,30.14,East,94,0.0,0.0,90,0.00,,,0.00,WUHU216DAVISVP2,2013-08-18 00:01:00,
2013-08-17 20:06:00,68.5,65.4,30.14,East,94,0.0,0.0,90,0.00,,,0.00,WUHU216DAVISVP2,2013-08-18 00:06:00,
2013-08-17 20:11:00,68.3,65.5,30.14,East,93,0.0,0.0,91,0.00,,,0.00,WUHU216DAVISVP2,2013-08-18 00:11:00,
2013-08-17 20:16:00,68.0,65.2,30.14,East,94,0.0,0.0,91,0.00,,,0.00,WUHU216DAVISVP2,2013-08-18 00:16:00,
2013-08-17 20:21:00,67.8,65.1,30.14,East,94,0.0,0.0,91,0.00,,,0.00,WUHU216DAVISVP2,2013-08-18 00:21:00,
2013-08-17 20:26:00,67.5,64.8,30.14,East,94,0.0,0.0,91,0.00,,,0.00,WUHU216DAVISVP2,2013-08-18 00:26:00,
2013-08-17 20:31:00,67.3,64.6,30.14,ESE,102,1.0,1.0,91,0.00,,,0.00,WUHU216DAVISVP2,2013-08-18 00:31:00,
2013-08-17 20:36:00,67.4,64.7,30.14,ESE,104,0.0,1.0,91,0.00,,,0.00,WUHU216DAVISVP2,2013-08-18 00:36:00,
2013-08-17 20:41:00,67.3,64.6,30.14,ESE,104,0.0,1.0,91,0.00,,,0.00,WUHU216DAVISVP2,2013-08-18 00:41:00,
2013-08-17 20:46:00,67.2,64.8,30.15,ESE,104,0.0,1.0,92,0.00,,,0.00,WUHU216DAVISVP2,2013-08-18 00:46:00,
2013-08-17 20:51:00,67.1,64.7,30.14,ESE,105,0.0,1.0,92,0.00,,,0.00,WUHU216DAVISVP2,2013-08-18 00:51:00,
2013-08-17 20:56:00,66.9,64.5,30.14,ESE,104,0.0,0.0,92,0.00,,,0.00,WUHU216DAVISVP2,2013-08-18 00:56:00,
2013-08-17 21:01:00,66.7,64.6,30.14,ESE,105,0.0,0.0,93,0.00,,,0.00,WUHU216DAVISVP2,2013-08-18 01:01:00,
2013-08-17 21:06:00,66.6,64.5,30.15,ESE,105,0.0,0.0,93,0.00,,,0.00,WUHU216DAVISVP2,2013-08-18 01:06:00,
2013-08-17 21:11:00,66.5,64.4,30.15,ESE,104,0.0,0.0,93,0.00,,,0.00,WUHU216DAVISVP2,2013-08-18 01:11:00,
2013-08-17 21:16:00,66.5,64.4,30.15,ESE,104,0.0,0.0,93,0.00,,,0.00,WUHU216DAVISVP2,2013-08-18 01:16:00,
2013-08-17 21:21:00,66.5,64.4,30.15,ESE,104,0.0,0.0,93,0.00,,,0.00,WUHU216DAVISVP2,2013-08-18 01:21:00,
2013-08-17 21:26:00,66.4,64.3,30.15,ESE,105,0.0,0.0,93,0.00,,,0.00,WUHU216DAVISVP2,2013-08-18 01:26:00,
2013-08-17 21:31:00,66.3,64.2,30.15,ESE,105,0.0,0.0,93,0.00,,,0.00,WUHU216DAVISVP2,2013-08-18 01:31:00,
2013-08-17 21:36:00,66.3,64.5,30.15,ESE,105,0.0,0.0,94,0.00,,,0.00,WUHU216DAVISVP2,2013-08-18 01:36:00,
2013-08-17 21:41:00,66.2,64.4,30.15,ESE,104,0.0,0.0,94,0.00,,,0.00,WUHU216DAVISVP2,2013-08-18 01:41:00,
2013-08-17 21:46:00,66.2,64.4,30.15,ESE,104,0.0,0.0,94,0.00,,,0.00,WUHU216DAVISVP2,2013-08-18 01:46:00,
2013-08-17 21:51:00,66.2,64.4,30.15,ESE,104,0.0,0.0,94,0.00,,,0.00,WUHU216DAVISVP2,2013-08-18 01:51:00,
2013-08-17 21:56:00,66.0,64.2,30.15,ESE,105,0.0,0.0,94,0.00,,,0.00,WUHU216DAVISVP2,2013-08-18 01:56:00,
2013-08-17 22:01:00,66.1,64.3,30.15,ESE,104,0.0,0.0,94,0.00,,,0.00,WUHU216DAVISVP2,2013-08-18 02:01:00,
2013-08-17 22:06:00,66.1,64.3,30.15,ESE,105,0.0,0.0,94,0.00,,,0.00,WUHU216DAVISVP2,2013-08-18 02:06:00,
2013-08-17 22:11:00,66.1,64.3,30.15,ESE,104,0.0,0.0,94,0.00,,,0.00,WUHU216DAVISVP2,2013-08-18 02:11:00,
2013-08-17 22:16:00,66.1,64.3,30.15,ESE,105,0.0,0.0,94,0.00,,,0.00,WUHU216DAVISVP2,2013-08-18 02:16:00,
2013-08-17 22:21:00,65.9,64.1,30.15,ESE,105,1.0,1.0,94,0.00,,,0.00,WUHU216DAVISVP2,2013-08-18 02:21:00,
2013-08-17 22:26:00,65.9,64.1,30.15,ESE,104,1.0,1.0,94,0.00,,,0.00,WUHU216DAVISVP2,2013-08-18 02:26:00,
2013-08-17 22:31:00,66.0,64.2,30.16,ESE,104,0.0,1.0,94,0.00,,,0.00,WUHU216DAVISVP2,2013-08-18 02:31:00,
2013-08-17 22:36:00,65.9,64.1,30.15,ESE,104,0.0,1.0,94,0.00,,,0.00,WUHU216DAVISVP2,2013-08-18 02:36:00,
2013-08-17 22:41:00,65.8,64.0,30.15,ESE,104,0.0,1.0,94,0.00,,,0.00,WUHU216DAVISVP2,2013-08-18 02:41:00,
2013-08-17 22:46:00,65.8,64.0,30.15,ESE,105,0.0,0.0,94,0.00,,,0.00,WUHU216DAVISVP2,2013-08-18 02:46:00,
2013-08-17 22:51:00,65.7,63.9,30.15,ESE,104,0.0,0.0,94,0.00,,,0.00,WUHU216DAVISVP2,2013-08-18 02:51:00,
2013-08-17 22:56:00,65.7,63.9,30.15,ESE,105,0.0,0.0,94,0.00,,,0.00,WUHU216DAVISVP2,2013-08-18 02:56:00,
2013-08-17 23:01:00,65.6,63.8,30.15,ESE,104,0.0,0.0,94,0.00,,,0.00,WUHU216DAVISVP2,2013-08-18 03:01:00,
2013-08-17 23:06:00,65.5,63.7,30.15,ESE,104,0.0,0.0,94,0.00,,,0.00,WUHU216DAVISVP2,2013-08-18 03:06:00,
2013-08-17 23:11:00,65.4,63.6,30.15,ESE,104,1.0,1.0,94,0.01,,,0.01,WUHU216DAVISVP2,2013-08-18 03:11:00,
2013-08-17 23:16:00,65.3,63.8,30.15,ESE,104,0.0,1.0,95,0.01,,,0.01,WUHU216DAVISVP2,2013-08-18 03:16:00,
2013-08-17 23:21:00,65.1,63.6,30.15,ESE,105,0.0,1.0,95,0.01,,,0.01,WUHU216DAVISVP2,2013-08-18 03:21:00,
2013-08-17 23:26:00,65.1,63.6,30.15,ESE,105,0.0,1.0,95,0.01,,,0.01,WUHU216DAVISVP2,2013-08-18 03:26:00,
2013-08-17 23:31:00,65.2,63.7,30.15,ESE,105,0.0,1.0,95,0.01,,,0.01,WUHU216DAVISVP2,2013-08-18 03:31:00,
2013-08-17 23:36:00,65.2,63.7,30.15,ESE,105,0.0,1.0,95,0.01,,,0.01,WUHU216DAVISVP2,2013-08-18 03:36:00,
2013-08-17 23:41:00,65.1,63.6,30.15,ESE,104,0.0,0.0,95,0.01,,,0.01,WUHU216DAVISVP2,2013-08-18 03:41:00,
2013-08-17 23:46:00,65.0,63.5,30.15,ESE,105,0.0,0.0,95,0.01,,,0.01,WUHU216DAVISVP2,2013-08-18 03:46:00,
2013-08-17 23:51:00,65.0,63.5,30.15,ESE,105,0.0,0.0,95,0.01,,,0.01,WUHU216DAVISVP2,2013-08-18 03:51:00,
2013-08-17 23:56:00,64.9,63.4,30.14,ESE,105,0.0,1.0,95,0.01,,,0.01,WUHU216DAVISVP2,2013-08-18 03:56:00,